Atlantis — PCDT — position and weather

sailwx.info

Track history (hours):
 
Tides and Currents Weather Stations Pressure Air Temp Water Temp Dewpoint Dewpoint Depression Visibility Wind Speed Wind Dir Waves Ship Positions

Atlantis (Netherlands)

Ship's website: http://www.tallship-company.com/artemis/gb_atlantis.htm

Last reported at 2018-Nov-10 18:46 UTC. Time now 2018-Dec-11 00:47 UTC.
Position N 36°52' W 008°42'.
Warning: this ship's position is 30 days out of date.

Length 40 m; draft 4.5 m.

Type: Sailing vessel. MMSI: 246253000.

Date/timePositionNaut miles runAvg speedWind from/ knotsBaromVisibWave heightAir tempDewpointWater temp
2018-Nov-10 18:46N 36°52' W 008°42'6 6.7
2018-Nov-10 17:49N 36°49' W 008°35'156 6.3
2018-Nov-09 16:50N 35°60' W 005°31'5 3.7
2018-Nov-09 15:37N 36°01' W 005°25'1 4.3
2018-Nov-09 15:22N 36°02' W 005°25'5 0.6
2018-Nov-09 07:41N 36°06' W 005°21'1 6.2
2018-Nov-09 07:32N 36°06' W 005°20'3 6.1
2018-Nov-09 07:02N 36°07' W 005°17'3 6.0
2018-Nov-09 06:27N 36°10' W 005°14'218 6.5
2018-Nov-07 21:06N 37°20' W 000°57'2 5.2
2018-Nov-07 20:37N 37°22' W 000°54'2 5.3
2018-Nov-07 20:13N 37°23' W 000°52'1 5.5
2018-Nov-07 19:59N 37°24' W 000°51'2 5.5
2018-Nov-07 19:32N 37°25' W 000°48'3 5.0
2018-Nov-07 19:02N 37°27' W 000°46'5 5.5
2018-Nov-07 18:09N 37°30' W 000°41'5 6.1
2018-Nov-07 17:18N 37°33' W 000°36'2 6.1
2018-Nov-07 17:02N 37°34' W 000°34'3 6.1
2018-Nov-07 16:32N 37°36' W 000°31'3 6.2
2018-Nov-07 16:02N 37°38' W 000°28'3 6.2
2018-Nov-07 15:30N 37°40' W 000°25'3 6.3
2018-Nov-07 15:01N 37°42' W 000°22'108 6.0
2018-Nov-06 20:56N 38°49' E 001°26'3 6.0
2018-Nov-06 20:30N 38°52' E 001°26'2 4.4
2018-Nov-06 20:01N 38°54' E 001°26'0 0.0
2018-Nov-06 19:58N 38°54' E 001°26'0 0.0
2018-Nov-06 19:28N 38°54' E 001°26'0 0.0
2018-Nov-06 18:52N 38°54' E 001°26'0 0.0
2018-Nov-06 18:22N 38°54' E 001°26'0 0.0
2018-Nov-06 18:01N 38°54' E 001°26'0 0.0
2018-Nov-06 17:58N 38°54' E 001°26'0 0.0
2018-Nov-06 17:28N 38°54' E 001°26'0 0.0
2018-Nov-06 17:01N 38°54' E 001°26'0 0.0
2018-Nov-06 16:58N 38°54' E 001°26'0 0.0
2018-Nov-06 16:25N 38°54' E 001°26'0 0.0
2018-Nov-06 16:01N 38°54' E 001°26'0 0.1
2018-Nov-06 15:55N 38°54' E 001°26'0 0.0
2018-Nov-06 15:28N 38°54' E 001°26'0 0.0
2018-Nov-06 15:01N 38°54' E 001°26'0 0.0
2018-Nov-06 14:55N 38°54' E 001°26'0 0.0
2018-Nov-06 14:28N 38°54' E 001°26'0 0.0
2018-Nov-06 14:01N 38°54' E 001°26'0 0.1
2018-Nov-06 13:58N 38°54' E 001°26'0 0.0
2018-Nov-06 13:28N 38°54' E 001°26'0 0.0
2018-Nov-06 13:01N 38°54' E 001°26'0 0.1
2018-Nov-06 12:58N 38°54' E 001°26'0 0.0
2018-Nov-06 12:28N 38°54' E 001°26'0 0.0
2018-Nov-06 10:55N 38°54' E 001°26'0 0.0
2018-Nov-06 10:28N 38°54' E 001°26'0 0.0
2018-Nov-06 09:58N 38°54' E 001°26'0 0.0
2018-Nov-06 09:28N 38°54' E 001°26'0 0.0
2018-Nov-06 09:01N 38°54' E 001°26'0 0.0
2018-Nov-06 08:58N 38°54' E 001°26'0 0.0
2018-Nov-06 08:28N 38°54' E 001°26'0 0.0
2018-Nov-06 08:01N 38°54' E 001°26'0 0.1
2018-Nov-06 07:58N 38°54' E 001°26'0 0.0
2018-Nov-06 07:28N 38°54' E 001°26'0 0.0
2018-Nov-06 07:01N 38°54' E 001°26'0 0.1
2018-Nov-06 06:58N 38°54' E 001°26'0 0.0
2018-Nov-06 06:28N 38°54' E 001°26'0 0.0
2018-Nov-06 06:01N 38°54' E 001°26'0 0.0
2018-Nov-06 05:58N 38°54' E 001°26'0 0.0
2018-Nov-06 05:28N 38°54' E 001°26'0 0.0
2018-Nov-06 05:01N 38°54' E 001°26'0 0.0
2018-Nov-06 04:58N 38°54' E 001°26'0 0.0
2018-Nov-06 04:28N 38°54' E 001°26'0 0.0
2018-Nov-06 04:01N 38°54' E 001°26'0 0.0
2018-Nov-06 03:58N 38°54' E 001°26'0 0.0
2018-Nov-06 03:28N 38°54' E 001°26'0 0.0
2018-Nov-06 03:01N 38°54' E 001°26'0 0.0
2018-Nov-06 02:58N 38°54' E 001°26'0 0.0
2018-Nov-06 02:25N 38°54' E 001°26'0 0.0
2018-Nov-06 02:01N 38°54' E 001°26'0 0.1
2018-Nov-06 01:58N 38°54' E 001°26'0 0.0
2018-Nov-06 01:28N 38°54' E 001°26'0 0.1
2018-Nov-06 00:30N 38°54' E 001°26'5 4.8
2018-Nov-05 23:28N 38°55' E 001°32'2 5.9
2018-Nov-05 23:03N 38°57' E 001°34'0 6.1
2018-Nov-05 23:00N 38°57' E 001°35'3 6.2
2018-Nov-05 22:30N 38°59' E 001°38'60 4.8
2018-Nov-05 09:51N 39°44' E 002°31'2 4.7
2018-Nov-05 09:20N 39°45' E 002°34'2 6.0
2018-Nov-05 09:00N 39°46' E 002°36'3 5.7
2018-Nov-05 08:30N 39°47' E 002°39'2 4.5
2018-Nov-05 08:03N 39°48' E 002°42'0 0.4
2018-Nov-05 07:59N 39°48' E 002°42'0 0.1
2018-Nov-05 07:22N 39°48' E 002°42'0 0.0
2018-Nov-05 07:03N 39°48' E 002°42'0 0.0
2018-Nov-05 07:00N 39°48' E 002°42'0 0.0
2018-Nov-05 06:09N 39°48' E 002°42'0 0.0
2018-Nov-05 05:57N 39°48' E 002°42'0 0.0
2018-Nov-05 05:29N 39°48' E 002°42'0 0.0
2018-Nov-05 05:03N 39°48' E 002°42'0 0.0
2018-Nov-05 05:00N 39°48' E 002°42'0 0.0
2018-Nov-05 04:30N 39°48' E 002°42'0 0.0
2018-Nov-05 04:03N 39°48' E 002°42'0 0.0
2018-Nov-05 04:00N 39°48' E 002°42'0 0.0
2018-Nov-05 03:30N 39°48' E 002°42'0 0.0
2018-Nov-05 03:03N 39°48' E 002°42'0 0.0
2018-Nov-05 03:00N 39°48' E 002°42'0 0.0
2018-Nov-05 02:11N 39°48' E 002°42'0 0.0
2018-Nov-05 02:03N 39°48' E 002°42'0 0.0
2018-Nov-05 01:59N 39°48' E 002°42'0 0.0
2018-Nov-05 01:30N 39°48' E 002°42'0 0.0
2018-Nov-05 01:00N 39°48' E 002°42'0 0.0
2018-Nov-05 00:30N 39°48' E 002°42'0 0.0
2018-Nov-05 00:03N 39°48' E 002°42'0 0.0
2018-Nov-05 00:00N 39°48' E 002°42'0 0.0
2018-Nov-04 23:10N 39°48' E 002°42'0 0.0
2018-Nov-04 23:02N 39°48' E 002°42'0 0.0
2018-Nov-04 23:00N 39°48' E 002°42'0 0.0
2018-Nov-04 22:30N 39°48' E 002°42'0 0.0
2018-Nov-04 22:02N 39°48' E 002°42'0 0.0
2018-Nov-04 22:01N 39°48' E 002°42'0 0.0
2018-Nov-04 21:30N 39°48' E 002°42'0 0.0
2018-Nov-04 20:01N 39°48' E 002°42'0 0.0
2018-Nov-04 19:50N 39°48' E 002°42'0 0.0
2018-Nov-04 19:24N 39°48' E 002°42'0 0.0
2018-Nov-04 19:00N 39°48' E 002°42'0 0.0
2018-Nov-04 17:24N 39°48' E 002°42'0 0.0
2018-Nov-04 16:55N 39°48' E 002°42'0 0.0
2018-Nov-04 16:26N 39°48' E 002°42'0 0.0
2018-Nov-04 15:39N 39°48' E 002°42'0 0.0
2018-Nov-04 15:30N 39°48' E 002°42'0 0.0
2018-Nov-04 14:48N 39°48' E 002°42'0 0.0
2018-Nov-04 14:29N 39°48' E 002°42'0 0.0
2018-Nov-04 13:58N 39°48' E 002°42'0 0.0
2018-Nov-04 12:54N 39°48' E 002°42'0 0.0
2018-Nov-04 12:29N 39°48' E 002°42'0 0.0
2018-Nov-04 11:47N 39°48' E 002°42'0 0.0
2018-Nov-04 11:26N 39°48' E 002°42'0 0.0
2018-Nov-04 11:02N 39°48' E 002°42'0 0.0
2018-Nov-04 10:59N 39°48' E 002°42'0 0.0
2018-Nov-04 10:25N 39°48' E 002°42'0 0.0
2018-Nov-04 10:03N 39°48' E 002°42'0 0.0
2018-Nov-04 09:59N 39°48' E 002°42'0 0.0
2018-Nov-04 09:29N 39°48' E 002°42'0 0.0
2018-Nov-04 09:01N 39°48' E 002°42'0 0.0
2018-Nov-04 08:55N 39°48' E 002°42'0 0.0
2018-Nov-04 08:29N 39°48' E 002°42'0 0.0
2018-Nov-04 08:00N 39°48' E 002°42'0 0.0
2018-Nov-04 07:30N 39°48' E 002°42'0 0.0
2018-Nov-04 07:02N 39°48' E 002°42'0 0.0
2018-Nov-04 06:52N 39°48' E 002°42'0 0.0
2018-Nov-04 06:30N 39°48' E 002°42'0 0.0
2018-Nov-04 05:56N 39°48' E 002°42'0 0.0
2018-Nov-04 05:27N 39°48' E 002°42'0 0.0
2018-Nov-04 04:49N 39°48' E 002°42'0 0.0
2018-Nov-04 04:30N 39°48' E 002°42'0 0.0
2018-Nov-04 04:03N 39°48' E 002°42'0 0.1
2018-Nov-04 03:59N 39°48' E 002°42'0 0.0
2018-Nov-04 03:27N 39°48' E 002°42'0 0.0
2018-Nov-04 03:03N 39°48' E 002°42'0 0.0
2018-Nov-04 03:00N 39°48' E 002°42'0 0.0
2018-Nov-04 02:27N 39°48' E 002°42'0 0.0
2018-Nov-04 02:00N 39°48' E 002°42'0 0.0
2018-Nov-04 01:24N 39°48' E 002°42'0 0.0
2018-Nov-04 00:59N 39°48' E 002°42'0 0.0
2018-Nov-04 00:21N 39°48' E 002°42'0 0.0
2018-Nov-04 00:03N 39°48' E 002°42'0 0.0
2018-Nov-03 23:56N 39°48' E 002°42'0 0.0
2018-Nov-03 23:24N 39°48' E 002°42'0 0.0
2018-Nov-03 17:01N 39°48' E 002°42'0 0.0
2018-Nov-03 16:40N 39°48' E 002°42'0 0.0
2018-Nov-03 16:20N 39°48' E 002°42'0 0.0
2018-Nov-03 16:03N 39°48' E 002°42'0 0.0
2018-Nov-03 15:56N 39°48' E 002°42'0 0.0
2018-Nov-03 15:23N 39°48' E 002°42'0 0.0
2018-Nov-03 15:03N 39°48' E 002°42'0 0.0
2018-Nov-03 15:00N 39°48' E 002°42'0 0.0
2018-Nov-03 14:02N 39°48' E 002°42'0 0.0
2018-Nov-03 13:36N 39°48' E 002°42'0 0.0
2018-Nov-03 13:10N 39°48' E 002°42'0 0.0
2018-Nov-03 12:39N 39°48' E 002°42'0 0.0
2018-Nov-03 12:27N 39°48' E 002°42'0 0.0
2018-Nov-03 09:51N 39°48' E 002°42'0 0.0
2018-Nov-03 08:14N 39°48' E 002°42'0 0.0
2018-Nov-03 07:45N 39°48' E 002°42'0 0.0
2018-Nov-03 07:29N 39°48' E 002°42'0 0.0
2018-Nov-03 06:57N 39°48' E 002°42'0 0.0
2018-Nov-03 06:22N 39°48' E 002°42'0 0.0
2018-Nov-03 05:57N 39°48' E 002°42'0 0.0
2018-Nov-03 05:29N 39°48' E 002°42'0 0.0
2018-Nov-03 05:02N 39°48' E 002°42'0 0.0
2018-Nov-03 04:58N 39°48' E 002°42'0 0.0
2018-Nov-03 04:30N 39°48' E 002°42'0 0.0
2018-Nov-03 04:02N 39°48' E 002°42'0 0.2
2018-Nov-03 04:00N 39°48' E 002°42'0 0.0
2018-Nov-03 03:30N 39°48' E 002°42'0 0.0
2018-Nov-03 03:02N 39°48' E 002°42'0 0.0
2018-Nov-03 02:55N 39°48' E 002°42'0 0.0
2018-Nov-03 02:30N 39°48' E 002°42'0 0.0
2018-Nov-03 01:59N 39°48' E 002°42'0 0.0
2018-Nov-03 01:30N 39°48' E 002°42'0 0.0
2018-Nov-03 00:59N 39°48' E 002°42'0 0.0
2018-Nov-03 00:28N 39°48' E 002°42'0 0.0
2018-Nov-03 00:01N 39°48' E 002°42'0 0.0
2018-Nov-02 23:30N 39°48' E 002°42'0 0.0
2018-Nov-02 23:03N 39°48' E 002°42'0 0.0
2018-Nov-02 22:42N 39°48' E 002°42'0 0.0
2018-Nov-02 22:04N 39°48' E 002°42'0 0.0
2018-Nov-02 16:05N 39°48' E 002°42'0 0.0
2018-Nov-02 15:55N 39°48' E 002°42'0 0.0
2018-Nov-02 15:27N 39°48' E 002°42'0 0.0
2018-Nov-02 14:57N 39°48' E 002°42'0 0.0
2018-Nov-02 14:30N 39°48' E 002°42'0 0.0
2018-Nov-02 14:00N 39°48' E 002°42'0 0.0
2018-Nov-02 13:29N 39°48' E 002°42'0 0.0
2018-Nov-02 12:51N 39°48' E 002°42'0 0.0
2018-Nov-02 12:21N 39°48' E 002°42'0 0.0
2018-Nov-02 12:00N 39°48' E 002°42'0 0.0
2018-Nov-02 11:24N 39°48' E 002°42'0 0.0
2018-Nov-02 11:03N 39°48' E 002°42'0 0.0
2018-Nov-02 11:00N 39°48' E 002°42'0 0.0
2018-Nov-02 10:19N 39°48' E 002°42'0 0.0
2018-Nov-02 09:57N 39°48' E 002°42'0 0.0
2018-Nov-02 08:38N 39°48' E 002°42'0 0.0
2018-Nov-02 08:23N 39°48' E 002°42'0 0.0
2018-Nov-02 08:03N 39°48' E 002°42'0 0.0
2018-Nov-02 08:00N 39°48' E 002°42'0 0.0
2018-Nov-02 07:29N 39°48' E 002°42'0 0.0
2018-Nov-02 06:42N 39°48' E 002°42'0 0.0
2018-Nov-02 05:33N 39°48' E 002°42'0 0.0
2018-Nov-02 05:20N 39°48' E 002°42'0 0.0
2018-Nov-02 05:03N 39°48' E 002°42'0 0.0
2018-Nov-02 04:42N 39°48' E 002°42'0 0.0
2018-Nov-02 04:29N 39°48' E 002°42'0 0.0
2018-Nov-02 03:58N 39°48' E 002°42'0 0.0
2018-Nov-02 03:30N 39°48' E 002°42'0 0.0
2018-Nov-02 02:30N 39°48' E 002°42'0 0.0
2018-Nov-02 01:32N 39°48' E 002°42'0 0.0
2018-Nov-02 00:55N 39°48' E 002°42'0 0.0
2018-Nov-01 23:48N 39°48' E 002°42'0 0.0
2018-Nov-01 23:29N 39°48' E 002°42'0 0.0
2018-Nov-01 21:06N 39°48' E 002°42'0 0.0
2018-Nov-01 20:20N 39°48' E 002°42'0 0.0
2018-Nov-01 16:44N 39°48' E 002°42'0 0.0
2018-Nov-01 16:14N 39°48' E 002°42'0 0.0
2018-Nov-01 16:03N 39°48' E 002°42'0 0.0
2018-Nov-01 15:50N 39°48' E 002°42'0 0.0
2018-Nov-01 15:05N 39°48' E 002°42'0 0.0
2018-Nov-01 14:41N 39°48' E 002°42'0 0.0
2018-Nov-01 08:50N 39°48' E 002°42'0 0.0
2018-Nov-01 08:25N 39°48' E 002°42'0 0.0
2018-Nov-01 08:03N 39°48' E 002°42'0 0.0
2018-Nov-01 07:52N 39°48' E 002°42'0 0.0
2018-Nov-01 07:30N 39°48' E 002°42'0 0.0
2018-Nov-01 05:10N 39°48' E 002°42'0 0.0
2018-Nov-01 05:03N 39°48' E 002°42'0 0.0
2018-Nov-01 04:52N 39°48' E 002°42'0 0.0
2018-Nov-01 04:21N 39°48' E 002°42'0 0.0
2018-Nov-01 03:16N 39°48' E 002°42'0 0.0
2018-Nov-01 02:39N 39°48' E 002°42'0 0.0
2018-Nov-01 01:48N 39°48' E 002°42'0 0.0
2018-Nov-01 00:49N 39°48' E 002°42'0 0.0
2018-Nov-01 00:22N 39°48' E 002°42'  
Track history (hours):
 
Tides and Currents Weather Stations Pressure Air Temp Water Temp Dewpoint Dewpoint Depression Visibility Wind Speed Wind Dir Waves Ship Positions

Atlantis (Netherlands)

Ship's website: http://www.tallship-company.com/artemis/gb_atlantis.htm

Last reported at 2018-Nov-10 18:46 UTC. Time now 2018-Dec-11 00:47 UTC.
Position N 36°52' W 008°42'.
Warning: this ship's position is 30 days out of date.

Length 40 m; draft 4.5 m.

Type: Sailing vessel. MMSI: 246253000.

Date/timePositionNaut miles runAvg speedWind from/ knotsBaromVisibWave heightAir tempDewpointWater temp
2018-Nov-10 18:46N 36°52' W 008°42'6 6.7
2018-Nov-10 17:49N 36°49' W 008°35'156 6.3
2018-Nov-09 16:50N 35°60' W 005°31'5 3.7
2018-Nov-09 15:37N 36°01' W 005°25'1 4.3
2018-Nov-09 15:22N 36°02' W 005°25'5 0.6
2018-Nov-09 07:41N 36°06' W 005°21'1 6.2
2018-Nov-09 07:32N 36°06' W 005°20'3 6.1
2018-Nov-09 07:02N 36°07' W 005°17'3 6.0
2018-Nov-09 06:27N 36°10' W 005°14'218 6.5
2018-Nov-07 21:06N 37°20' W 000°57'2 5.2
2018-Nov-07 20:37N 37°22' W 000°54'2 5.3
2018-Nov-07 20:13N 37°23' W 000°52'1 5.5
2018-Nov-07 19:59N 37°24' W 000°51'2 5.5
2018-Nov-07 19:32N 37°25' W 000°48'3 5.0
2018-Nov-07 19:02N 37°27' W 000°46'5 5.5
2018-Nov-07 18:09N 37°30' W 000°41'5 6.1
2018-Nov-07 17:18N 37°33' W 000°36'2 6.1
2018-Nov-07 17:02N 37°34' W 000°34'3 6.1
2018-Nov-07 16:32N 37°36' W 000°31'3 6.2
2018-Nov-07 16:02N 37°38' W 000°28'3 6.2
2018-Nov-07 15:30N 37°40' W 000°25'3 6.3
2018-Nov-07 15:01N 37°42' W 000°22'108 6.0
2018-Nov-06 20:56N 38°49' E 001°26'3 6.0
2018-Nov-06 20:30N 38°52' E 001°26'2 4.4
2018-Nov-06 20:01N 38°54' E 001°26'0 0.0
2018-Nov-06 19:58N 38°54' E 001°26'0 0.0
2018-Nov-06 19:28N 38°54' E 001°26'0 0.0
2018-Nov-06 18:52N 38°54' E 001°26'0 0.0
2018-Nov-06 18:22N 38°54' E 001°26'0 0.0
2018-Nov-06 18:01N 38°54' E 001°26'0 0.0
2018-Nov-06 17:58N 38°54' E 001°26'0 0.0
2018-Nov-06 17:28N 38°54' E 001°26'0 0.0
2018-Nov-06 17:01N 38°54' E 001°26'0 0.0
2018-Nov-06 16:58N 38°54' E 001°26'0 0.0
2018-Nov-06 16:25N 38°54' E 001°26'0 0.0
2018-Nov-06 16:01N 38°54' E 001°26'0 0.1
2018-Nov-06 15:55N 38°54' E 001°26'0 0.0
2018-Nov-06 15:28N 38°54' E 001°26'0 0.0
2018-Nov-06 15:01N 38°54' E 001°26'0 0.0
2018-Nov-06 14:55N 38°54' E 001°26'0 0.0
2018-Nov-06 14:28N 38°54' E 001°26'0 0.0
2018-Nov-06 14:01N 38°54' E 001°26'0 0.1
2018-Nov-06 13:58N 38°54' E 001°26'0 0.0
2018-Nov-06 13:28N 38°54' E 001°26'0 0.0
2018-Nov-06 13:01N 38°54' E 001°26'0 0.1
2018-Nov-06 12:58N 38°54' E 001°26'0 0.0
2018-Nov-06 12:28N 38°54' E 001°26'0 0.0
2018-Nov-06 10:55N 38°54' E 001°26'0 0.0
2018-Nov-06 10:28N 38°54' E 001°26'0 0.0
2018-Nov-06 09:58N 38°54' E 001°26'0 0.0
2018-Nov-06 09:28N 38°54' E 001°26'0 0.0
2018-Nov-06 09:01N 38°54' E 001°26'0 0.0
2018-Nov-06 08:58N 38°54' E 001°26'0 0.0
2018-Nov-06 08:28N 38°54' E 001°26'0 0.0
2018-Nov-06 08:01N 38°54' E 001°26'0 0.1
2018-Nov-06 07:58N 38°54' E 001°26'0 0.0
2018-Nov-06 07:28N 38°54' E 001°26'0 0.0
2018-Nov-06 07:01N 38°54' E 001°26'0 0.1
2018-Nov-06 06:58N 38°54' E 001°26'0 0.0
2018-Nov-06 06:28N 38°54' E 001°26'0 0.0
2018-Nov-06 06:01N 38°54' E 001°26'0 0.0
2018-Nov-06 05:58N 38°54' E 001°26'0 0.0
2018-Nov-06 05:28N 38°54' E 001°26'0 0.0
2018-Nov-06 05:01N 38°54' E 001°26'0 0.0
2018-Nov-06 04:58N 38°54' E 001°26'0 0.0
2018-Nov-06 04:28N 38°54' E 001°26'0 0.0
2018-Nov-06 04:01N 38°54' E 001°26'0 0.0
2018-Nov-06 03:58N 38°54' E 001°26'0 0.0
2018-Nov-06 03:28N 38°54' E 001°26'0 0.0
2018-Nov-06 03:01N 38°54' E 001°26'0 0.0
2018-Nov-06 02:58N 38°54' E 001°26'0 0.0
2018-Nov-06 02:25N 38°54' E 001°26'0 0.0
2018-Nov-06 02:01N 38°54' E 001°26'0 0.1
2018-Nov-06 01:58N 38°54' E 001°26'0 0.0
2018-Nov-06 01:28N 38°54' E 001°26'0 0.1
2018-Nov-06 00:30N 38°54' E 001°26'5 4.8
2018-Nov-05 23:28N 38°55' E 001°32'2 5.9
2018-Nov-05 23:03N 38°57' E 001°34'0 6.1
2018-Nov-05 23:00N 38°57' E 001°35'3 6.2
2018-Nov-05 22:30N 38°59' E 001°38'60 4.8
2018-Nov-05 09:51N 39°44' E 002°31'2 4.7
2018-Nov-05 09:20N 39°45' E 002°34'2 6.0
2018-Nov-05 09:00N 39°46' E 002°36'3 5.7
2018-Nov-05 08:30N 39°47' E 002°39'2 4.5
2018-Nov-05 08:03N 39°48' E 002°42'0 0.4
2018-Nov-05 07:59N 39°48' E 002°42'0 0.1
2018-Nov-05 07:22N 39°48' E 002°42'0 0.0
2018-Nov-05 07:03N 39°48' E 002°42'0 0.0
2018-Nov-05 07:00N 39°48' E 002°42'0 0.0
2018-Nov-05 06:09N 39°48' E 002°42'0 0.0
2018-Nov-05 05:57N 39°48' E 002°42'0 0.0
2018-Nov-05 05:29N 39°48' E 002°42'0 0.0
2018-Nov-05 05:03N 39°48' E 002°42'0 0.0
2018-Nov-05 05:00N 39°48' E 002°42'0 0.0
2018-Nov-05 04:30N 39°48' E 002°42'0 0.0
2018-Nov-05 04:03N 39°48' E 002°42'0 0.0
2018-Nov-05 04:00N 39°48' E 002°42'0 0.0
2018-Nov-05 03:30N 39°48' E 002°42'0 0.0
2018-Nov-05 03:03N 39°48' E 002°42'0 0.0
2018-Nov-05 03:00N 39°48' E 002°42'0 0.0
2018-Nov-05 02:11N 39°48' E 002°42'0 0.0
2018-Nov-05 02:03N 39°48' E 002°42'0 0.0
2018-Nov-05 01:59N 39°48' E 002°42'0 0.0
2018-Nov-05 01:30N 39°48' E 002°42'0 0.0
2018-Nov-05 01:00N 39°48' E 002°42'0 0.0
2018-Nov-05 00:30N 39°48' E 002°42'0 0.0
2018-Nov-05 00:03N 39°48' E 002°42'0 0.0
2018-Nov-05 00:00N 39°48' E 002°42'0 0.0
2018-Nov-04 23:10N 39°48' E 002°42'0 0.0
2018-Nov-04 23:02N 39°48' E 002°42'0 0.0
2018-Nov-04 23:00N 39°48' E 002°42'0 0.0
2018-Nov-04 22:30N 39°48' E 002°42'0 0.0
2018-Nov-04 22:02N 39°48' E 002°42'0 0.0
2018-Nov-04 22:01N 39°48' E 002°42'0 0.0
2018-Nov-04 21:30N 39°48' E 002°42'0 0.0
2018-Nov-04 20:01N 39°48' E 002°42'0 0.0
2018-Nov-04 19:50N 39°48' E 002°42'0 0.0
2018-Nov-04 19:24N 39°48' E 002°42'0 0.0
2018-Nov-04 19:00N 39°48' E 002°42'0 0.0
2018-Nov-04 17:24N 39°48' E 002°42'0 0.0
2018-Nov-04 16:55N 39°48' E 002°42'0 0.0
2018-Nov-04 16:26N 39°48' E 002°42'0 0.0
2018-Nov-04 15:39N 39°48' E 002°42'0 0.0
2018-Nov-04 15:30N 39°48' E 002°42'0 0.0
2018-Nov-04 14:48N 39°48' E 002°42'0 0.0
2018-Nov-04 14:29N 39°48' E 002°42'0 0.0
2018-Nov-04 13:58N 39°48' E 002°42'0 0.0
2018-Nov-04 12:54N 39°48' E 002°42'0 0.0
2018-Nov-04 12:29N 39°48' E 002°42'0 0.0
2018-Nov-04 11:47N 39°48' E 002°42'0 0.0
2018-Nov-04 11:26N 39°48' E 002°42'0 0.0
2018-Nov-04 11:02N 39°48' E 002°42'0 0.0
2018-Nov-04 10:59N 39°48' E 002°42'0 0.0
2018-Nov-04 10:25N 39°48' E 002°42'0 0.0
2018-Nov-04 10:03N 39°48' E 002°42'0 0.0
2018-Nov-04 09:59N 39°48' E 002°42'0 0.0
2018-Nov-04 09:29N 39°48' E 002°42'0 0.0
2018-Nov-04 09:01N 39°48' E 002°42'0 0.0
2018-Nov-04 08:55N 39°48' E 002°42'0 0.0
2018-Nov-04 08:29N 39°48' E 002°42'0 0.0
2018-Nov-04 08:00N 39°48' E 002°42'0 0.0
2018-Nov-04 07:30N 39°48' E 002°42'0 0.0
2018-Nov-04 07:02N 39°48' E 002°42'0 0.0
2018-Nov-04 06:52N 39°48' E 002°42'0 0.0
2018-Nov-04 06:30N 39°48' E 002°42'0 0.0
2018-Nov-04 05:56N 39°48' E 002°42'0 0.0
2018-Nov-04 05:27N 39°48' E 002°42'0 0.0
2018-Nov-04 04:49N 39°48' E 002°42'0 0.0
2018-Nov-04 04:30N 39°48' E 002°42'0 0.0
2018-Nov-04 04:03N 39°48' E 002°42'0 0.1
2018-Nov-04 03:59N 39°48' E 002°42'0 0.0
2018-Nov-04 03:27N 39°48' E 002°42'0 0.0
2018-Nov-04 03:03N 39°48' E 002°42'0 0.0
2018-Nov-04 03:00N 39°48' E 002°42'0 0.0
2018-Nov-04 02:27N 39°48' E 002°42'0 0.0
2018-Nov-04 02:00N 39°48' E 002°42'0 0.0
2018-Nov-04 01:24N 39°48' E 002°42'0 0.0
2018-Nov-04 00:59N 39°48' E 002°42'0 0.0
2018-Nov-04 00:21N 39°48' E 002°42'0 0.0
2018-Nov-04 00:03N 39°48' E 002°42'0 0.0
2018-Nov-03 23:56N 39°48' E 002°42'0 0.0
2018-Nov-03 23:24N 39°48' E 002°42'0 0.0
2018-Nov-03 17:01N 39°48' E 002°42'0 0.0
2018-Nov-03 16:40N 39°48' E 002°42'0 0.0
2018-Nov-03 16:20N 39°48' E 002°42'0 0.0
2018-Nov-03 16:03N 39°48' E 002°42'0 0.0
2018-Nov-03 15:56N 39°48' E 002°42'0 0.0
2018-Nov-03 15:23N 39°48' E 002°42'0 0.0
2018-Nov-03 15:03N 39°48' E 002°42'0 0.0
2018-Nov-03 15:00N 39°48' E 002°42'0 0.0
2018-Nov-03 14:02N 39°48' E 002°42'0 0.0
2018-Nov-03 13:36N 39°48' E 002°42'0 0.0
2018-Nov-03 13:10N 39°48' E 002°42'0 0.0
2018-Nov-03 12:39N 39°48' E 002°42'0 0.0
2018-Nov-03 12:27N 39°48' E 002°42'0 0.0
2018-Nov-03 09:51N 39°48' E 002°42'0 0.0
2018-Nov-03 08:14N 39°48' E 002°42'0 0.0
2018-Nov-03 07:45N 39°48' E 002°42'0 0.0
2018-Nov-03 07:29N 39°48' E 002°42'0 0.0
2018-Nov-03 06:57N 39°48' E 002°42'0 0.0
2018-Nov-03 06:22N 39°48' E 002°42'0 0.0
2018-Nov-03 05:57N 39°48' E 002°42'0 0.0
2018-Nov-03 05:29N 39°48' E 002°42'0 0.0
2018-Nov-03 05:02N 39°48' E 002°42'0 0.0
2018-Nov-03 04:58N 39°48' E 002°42'0 0.0
2018-Nov-03 04:30N 39°48' E 002°42'0 0.0
2018-Nov-03 04:02N 39°48' E 002°42'0 0.2
2018-Nov-03 04:00N 39°48' E 002°42'0 0.0
2018-Nov-03 03:30N 39°48' E 002°42'0 0.0
2018-Nov-03 03:02N 39°48' E 002°42'0 0.0
2018-Nov-03 02:55N 39°48' E 002°42'0 0.0
2018-Nov-03 02:30N 39°48' E 002°42'0 0.0
2018-Nov-03 01:59N 39°48' E 002°42'0 0.0
2018-Nov-03 01:30N 39°48' E 002°42'0 0.0
2018-Nov-03 00:59N 39°48' E 002°42'0 0.0
2018-Nov-03 00:28N 39°48' E 002°42'0 0.0
2018-Nov-03 00:01N 39°48' E 002°42'0 0.0
2018-Nov-02 23:30N 39°48' E 002°42'0 0.0
2018-Nov-02 23:03N 39°48' E 002°42'0 0.0
2018-Nov-02 22:42N 39°48' E 002°42'0 0.0
2018-Nov-02 22:04N 39°48' E 002°42'0 0.0
2018-Nov-02 16:05N 39°48' E 002°42'0 0.0
2018-Nov-02 15:55N 39°48' E 002°42'0 0.0
2018-Nov-02 15:27N 39°48' E 002°42'0 0.0
2018-Nov-02 14:57N 39°48' E 002°42'0 0.0
2018-Nov-02 14:30N 39°48' E 002°42'0 0.0
2018-Nov-02 14:00N 39°48' E 002°42'0 0.0
2018-Nov-02 13:29N 39°48' E 002°42'0 0.0
2018-Nov-02 12:51N 39°48' E 002°42'0 0.0
2018-Nov-02 12:21N 39°48' E 002°42'0 0.0
2018-Nov-02 12:00N 39°48' E 002°42'0 0.0
2018-Nov-02 11:24N 39°48' E 002°42'0 0.0
2018-Nov-02 11:03N 39°48' E 002°42'0 0.0
2018-Nov-02 11:00N 39°48' E 002°42'0 0.0
2018-Nov-02 10:19N 39°48' E 002°42'0 0.0
2018-Nov-02 09:57N 39°48' E 002°42'0 0.0
2018-Nov-02 08:38N 39°48' E 002°42'0 0.0
2018-Nov-02 08:23N 39°48' E 002°42'0 0.0
2018-Nov-02 08:03N 39°48' E 002°42'0 0.0
2018-Nov-02 08:00N 39°48' E 002°42'0 0.0
2018-Nov-02 07:29N 39°48' E 002°42'0 0.0
2018-Nov-02 06:42N 39°48' E 002°42'0 0.0
2018-Nov-02 05:33N 39°48' E 002°42'0 0.0
2018-Nov-02 05:20N 39°48' E 002°42'0 0.0
2018-Nov-02 05:03N 39°48' E 002°42'0 0.0
2018-Nov-02 04:42N 39°48' E 002°42'0 0.0
2018-Nov-02 04:29N 39°48' E 002°42'0 0.0
2018-Nov-02 03:58N 39°48' E 002°42'0 0.0
2018-Nov-02 03:30N 39°48' E 002°42'0 0.0
2018-Nov-02 02:30N 39°48' E 002°42'0 0.0
2018-Nov-02 01:32N 39°48' E 002°42'0 0.0
2018-Nov-02 00:55N 39°48' E 002°42'0 0.0
2018-Nov-01 23:48N 39°48' E 002°42'0 0.0
2018-Nov-01 23:29N 39°48' E 002°42'0 0.0
2018-Nov-01 21:06N 39°48' E 002°42'0 0.0
2018-Nov-01 20:20N 39°48' E 002°42'0 0.0
2018-Nov-01 16:44N 39°48' E 002°42'0 0.0
2018-Nov-01 16:14N 39°48' E 002°42'0 0.0
2018-Nov-01 16:03N 39°48' E 002°42'0 0.0
2018-Nov-01 15:50N 39°48' E 002°42'0 0.0
2018-Nov-01 15:05N 39°48' E 002°42'0 0.0
2018-Nov-01 14:41N 39°48' E 002°42'0 0.0
2018-Nov-01 08:50N 39°48' E 002°42'0 0.0
2018-Nov-01 08:25N 39°48' E 002°42'0 0.0
2018-Nov-01 08:03N 39°48' E 002°42'0 0.0
2018-Nov-01 07:52N 39°48' E 002°42'0 0.0
2018-Nov-01 07:30N 39°48' E 002°42'0 0.0
2018-Nov-01 05:10N 39°48' E 002°42'0 0.0
2018-Nov-01 05:03N 39°48' E 002°42'0 0.0
2018-Nov-01 04:52N 39°48' E 002°42'0 0.0
2018-Nov-01 04:21N 39°48' E 002°42'0 0.0
2018-Nov-01 03:16N 39°48' E 002°42'0 0.0
2018-Nov-01 02:39N 39°48' E 002°42'0 0.0
2018-Nov-01 01:48N 39°48' E 002°42'0 0.0
2018-Nov-01 00:49N 39°48' E 002°42'0 0.0
2018-Nov-01 00:22N 39°48' E 002°42'  

Dump ship's entire track history